Terminal Aerodrome Forecast
Issued by NWS Wilmington, OH

Home | Current Version | Previous Version | Text Only | Print | Product List | Glossary On
Versions: 1 2 3 4 5 6 7 8 9 10 11 12 13 14 15 16 17 18 19 20 21 22 23
901
FTUS41 KILN 210538
TAFDAY
TAF
KDAY 210538Z 2106/2206 12008KT P6SM OVC240
     FM211200 18006KT P6SM SCT035 BKN220
     FM211500 20011KT P6SM SCT035 OVC210
     FM212200 21010G17KT P6SM VCSH SCT035 OVC060
     FM220000 20008KT 6SM BR SCT028 OVC040
     FM220200 21007KT 5SM BR BKN028 OVC035=

USA.gov is the U.S. government's official web portal to all federal, state and local government web resources and services.